sensor_id;sensor_type;location;lat;lon;timestamp;P1;durP1;ratioP1;P2;durP2;ratioP2
2408;SDS011;8463;48.094;7.970;2024-01-06T00:01:16;2.90;;;2.20;;
2408;SDS011;8463;48.094;7.970;2024-01-06T00:03:41;2.10;;;1.53;;
2408;SDS011;8463;48.094;7.970;2024-01-06T00:06:07;2.30;;;1.70;;
2408;SDS011;8463;48.094;7.970;2024-01-06T00:08:36;1.70;;;1.60;;
2408;SDS011;8463;48.094;7.970;2024-01-06T00:11:01;4.20;;;1.90;;
2408;SDS011;8463;48.094;7.970;2024-01-06T00:13:28;4.30;;;2.87;;
2408;SDS011;8463;48.094;7.970;2024-01-06T00:15:53;4.43;;;2.10;;
2408;SDS011;8463;48.094;7.970;2024-01-06T00:18:19;2.77;;;2.03;;
2408;SDS011;8463;48.094;7.970;2024-01-06T00:20:44;4.23;;;1.73;;
2408;SDS011;8463;48.094;7.970;2024-01-06T00:23:10;1.57;;;1.47;;
2408;SDS011;8463;48.094;7.970;2024-01-06T00:25:36;2.73;;;2.03;;
2408;SDS011;8463;48.094;7.970;2024-01-06T00:28:01;2.00;;;1.90;;
2408;SDS011;8463;48.094;7.970;2024-01-06T00:30:27;2.40;;;2.20;;
2408;SDS011;8463;48.094;7.970;2024-01-06T00:32:52;3.07;;;1.80;;
2408;SDS011;8463;48.094;7.970;2024-01-06T00:35:18;2.20;;;2.00;;
2408;SDS011;8463;48.094;7.970;2024-01-06T00:37:44;2.97;;;2.43;;
2408;SDS011;8463;48.094;7.970;2024-01-06T00:40:10;4.10;;;2.03;;
2408;SDS011;8463;48.094;7.970;2024-01-06T00:42:36;2.80;;;2.23;;
2408;SDS011;8463;48.094;7.970;2024-01-06T00:45:02;3.40;;;2.40;;
2408;SDS011;8463;48.094;7.970;2024-01-06T00:47:29;3.07;;;1.93;;
2408;SDS011;8463;48.094;7.970;2024-01-06T00:49:54;4.97;;;2.40;;
2408;SDS011;8463;48.094;7.970;2024-01-06T00:52:20;3.00;;;1.60;;
2408;SDS011;8463;48.094;7.970;2024-01-06T00:54:45;3.00;;;1.80;;
2408;SDS011;8463;48.094;7.970;2024-01-06T00:57:12;3.43;;;1.83;;
2408;SDS011;8463;48.094;7.970;2024-01-06T00:59:37;3.87;;;2.30;;
2408;SDS011;8463;48.094;7.970;2024-01-06T01:02:03;2.37;;;1.80;;
2408;SDS011;8463;48.094;7.970;2024-01-06T01:04:29;4.60;;;2.27;;
2408;SDS011;8463;48.094;7.970;2024-01-06T01:06:55;2.30;;;1.80;;
2408;SDS011;8463;48.094;7.970;2024-01-06T01:09:20;1.97;;;1.67;;
2408;SDS011;8463;48.094;7.970;2024-01-06T01:11:46;3.30;;;1.67;;
2408;SDS011;8463;48.094;7.970;2024-01-06T01:14:14;2.97;;;1.90;;
2408;SDS011;8463;48.094;7.970;2024-01-06T01:16:39;2.60;;;1.80;;
2408;SDS011;8463;48.094;7.970;2024-01-06T01:19:05;2.77;;;1.60;;
2408;SDS011;8463;48.094;7.970;2024-01-06T01:21:31;1.97;;;1.53;;
2408;SDS011;8463;48.094;7.970;2024-01-06T01:23:56;3.07;;;1.30;;
2408;SDS011;8463;48.094;7.970;2024-01-06T01:26:22;1.53;;;1.43;;
2408;SDS011;8463;48.094;7.970;2024-01-06T01:28:47;4.07;;;1.87;;
2408;SDS011;8463;48.094;7.970;2024-01-06T01:31:13;3.67;;;2.20;;
2408;SDS011;8463;48.094;7.970;2024-01-06T01:33:39;3.67;;;1.57;;
2408;SDS011;8463;48.094;7.970;2024-01-06T01:36:05;4.27;;;2.03;;
2408;SDS011;8463;48.094;7.970;2024-01-06T01:38:31;2.17;;;1.83;;
2408;SDS011;8463;48.094;7.970;2024-01-06T01:40:56;3.53;;;1.60;;
2408;SDS011;8463;48.094;7.970;2024-01-06T01:43:24;5.50;;;1.93;;
2408;SDS011;8463;48.094;7.970;2024-01-06T01:45:55;2.67;;;1.80;;
2408;SDS011;8463;48.094;7.970;2024-01-06T01:48:22;2.47;;;1.40;;
2408;SDS011;8463;48.094;7.970;2024-01-06T01:50:48;3.17;;;1.60;;
2408;SDS011;8463;48.094;7.970;2024-01-06T01:53:15;1.43;;;1.30;;
2408;SDS011;8463;48.094;7.970;2024-01-06T01:55:41;3.63;;;2.30;;
2408;SDS011;8463;48.094;7.970;2024-01-06T01:58:09;2.40;;;2.10;;
2408;SDS011;8463;48.094;7.970;2024-01-06T02:00:36;4.00;;;1.60;;
2408;SDS011;8463;48.094;7.970;2024-01-06T02:03:02;2.87;;;1.80;;
2408;SDS011;8463;48.094;7.970;2024-01-06T02:05:32;4.10;;;1.40;;
2408;SDS011;8463;48.094;7.970;2024-01-06T02:07:58;4.40;;;1.33;;
2408;SDS011;8463;48.094;7.970;2024-01-06T02:10:24;2.30;;;1.50;;
2408;SDS011;8463;48.094;7.970;2024-01-06T02:12:49;4.60;;;1.63;;
2408;SDS011;8463;48.094;7.970;2024-01-06T02:15:16;1.83;;;1.40;;
2408;SDS011;8463;48.094;7.970;2024-01-06T02:17:43;2.00;;;1.90;;
2408;SDS011;8463;48.094;7.970;2024-01-06T02:20:09;1.87;;;1.23;;
2408;SDS011;8463;48.094;7.970;2024-01-06T02:22:36;2.00;;;1.37;;
2408;SDS011;8463;48.094;7.970;2024-01-06T02:25:03;3.27;;;1.43;;
2408;SDS011;8463;48.094;7.970;2024-01-06T02:27:37;1.93;;;1.70;;
2408;SDS011;8463;48.094;7.970;2024-01-06T02:30:06;2.50;;;2.00;;
2408;SDS011;8463;48.094;7.970;2024-01-06T02:32:32;3.20;;;1.93;;
2408;SDS011;8463;48.094;7.970;2024-01-06T02:34:58;2.27;;;2.03;;
2408;SDS011;8463;48.094;7.970;2024-01-06T02:37:23;3.97;;;1.77;;
2408;SDS011;8463;48.094;7.970;2024-01-06T02:39:49;2.90;;;1.70;;
2408;SDS011;8463;48.094;7.970;2024-01-06T02:42:15;2.67;;;1.67;;
2408;SDS011;8463;48.094;7.970;2024-01-06T02:44:41;3.10;;;2.07;;
2408;SDS011;8463;48.094;7.970;2024-01-06T02:47:06;2.37;;;1.20;;
2408;SDS011;8463;48.094;7.970;2024-01-06T02:49:32;2.10;;;1.80;;
2408;SDS011;8463;48.094;7.970;2024-01-06T02:51:57;3.30;;;1.60;;
2408;SDS011;8463;48.094;7.970;2024-01-06T02:54:23;1.70;;;1.53;;
2408;SDS011;8463;48.094;7.970;2024-01-06T02:56:49;1.70;;;1.20;;
2408;SDS011;8463;48.094;7.970;2024-01-06T02:59:14;1.57;;;1.20;;
2408;SDS011;8463;48.094;7.970;2024-01-06T03:01:40;1.70;;;1.60;;
2408;SDS011;8463;48.094;7.970;2024-01-06T03:04:05;5.63;;;1.50;;
2408;SDS011;8463;48.094;7.970;2024-01-06T03:06:31;1.57;;;1.30;;
2408;SDS011;8463;48.094;7.970;2024-01-06T03:08:57;2.60;;;1.10;;
2408;SDS011;8463;48.094;7.970;2024-01-06T03:11:23;5.67;;;1.60;;
2408;SDS011;8463;48.094;7.970;2024-01-06T03:13:49;1.33;;;1.23;;
2408;SDS011;8463;48.094;7.970;2024-01-06T03:16:14;2.30;;;1.57;;
2408;SDS011;8463;48.094;7.970;2024-01-06T03:18:40;2.20;;;1.60;;
2408;SDS011;8463;48.094;7.970;2024-01-06T03:21:15;2.10;;;1.27;;
2408;SDS011;8463;48.094;7.970;2024-01-06T03:23:45;1.37;;;1.27;;
2408;SDS011;8463;48.094;7.970;2024-01-06T03:26:11;1.40;;;1.30;;
2408;SDS011;8463;48.094;7.970;2024-01-06T03:28:37;1.40;;;1.30;;
2408;SDS011;8463;48.094;7.970;2024-01-06T03:31:03;1.20;;;1.10;;
2408;SDS011;8463;48.094;7.970;2024-01-06T03:33:28;2.23;;;1.07;;
2408;SDS011;8463;48.094;7.970;2024-01-06T03:35:54;2.03;;;1.00;;
2408;SDS011;8463;48.094;7.970;2024-01-06T03:38:19;1.93;;;1.50;;
2408;SDS011;8463;48.094;7.970;2024-01-06T03:40:45;2.60;;;1.40;;
2408;SDS011;8463;48.094;7.970;2024-01-06T03:43:11;2.80;;;1.13;;
2408;SDS011;8463;48.094;7.970;2024-01-06T03:45:36;3.30;;;1.10;;
2408;SDS011;8463;48.094;7.970;2024-01-06T03:48:02;0.90;;;0.90;;
2408;SDS011;8463;48.094;7.970;2024-01-06T03:50:28;2.13;;;0.97;;
2408;SDS011;8463;48.094;7.970;2024-01-06T03:52:53;1.43;;;1.33;;
2408;SDS011;8463;48.094;7.970;2024-01-06T03:55:19;1.40;;;1.10;;
2408;SDS011;8463;48.094;7.970;2024-01-06T03:57:44;1.87;;;1.07;;
2408;SDS011;8463;48.094;7.970;2024-01-06T04:00:10;1.37;;;1.13;;
2408;SDS011;8463;48.094;7.970;2024-01-06T04:02:36;3.33;;;1.90;;
2408;SDS011;8463;48.094;7.970;2024-01-06T04:05:04;1.57;;;1.47;;
2408;SDS011;8463;48.094;7.970;2024-01-06T04:07:30;1.73;;;1.60;;
2408;SDS011;8463;48.094;7.970;2024-01-06T04:09:56;1.87;;;1.40;;
2408;SDS011;8463;48.094;7.970;2024-01-06T04:12:21;1.70;;;1.50;;
2408;SDS011;8463;48.094;7.970;2024-01-06T04:14:47;1.40;;;1.27;;
2408;SDS011;8463;48.094;7.970;2024-01-06T04:17:12;1.60;;;1.43;;
2408;SDS011;8463;48.094;7.970;2024-01-06T04:19:38;2.27;;;1.10;;
2408;SDS011;8463;48.094;7.970;2024-01-06T04:22:04;1.93;;;1.37;;
2408;SDS011;8463;48.094;7.970;2024-01-06T04:24:29;2.67;;;1.43;;
2408;SDS011;8463;48.094;7.970;2024-01-06T04:26:55;1.93;;;1.33;;
2408;SDS011;8463;48.094;7.970;2024-01-06T04:29:21;1.23;;;1.13;;
2408;SDS011;8463;48.094;7.970;2024-01-06T04:31:46;1.83;;;1.20;;
2408;SDS011;8463;48.094;7.970;2024-01-06T04:34:12;1.30;;;1.20;;
2408;SDS011;8463;48.094;7.970;2024-01-06T04:36:37;1.50;;;1.30;;
2408;SDS011;8463;48.094;7.970;2024-01-06T04:39:03;2.10;;;1.20;;
2408;SDS011;8463;48.094;7.970;2024-01-06T04:41:29;1.70;;;1.60;;
2408;SDS011;8463;48.094;7.970;2024-01-06T04:43:54;1.90;;;1.53;;
2408;SDS011;8463;48.094;7.970;2024-01-06T04:46:20;4.10;;;1.20;;
2408;SDS011;8463;48.094;7.970;2024-01-06T04:48:46;3.27;;;1.30;;
2408;SDS011;8463;48.094;7.970;2024-01-06T04:51:12;1.97;;;1.47;;
2408;SDS011;8463;48.094;7.970;2024-01-06T04:53:38;2.77;;;1.87;;
2408;SDS011;8463;48.094;7.970;2024-01-06T04:56:04;5.77;;;3.17;;
2408;SDS011;8463;48.094;7.970;2024-01-06T04:58:30;4.47;;;2.03;;
2408;SDS011;8463;48.094;7.970;2024-01-06T05:00:55;2.80;;;1.67;;
2408;SDS011;8463;48.094;7.970;2024-01-06T05:03:21;2.13;;;1.37;;
2408;SDS011;8463;48.094;7.970;2024-01-06T05:05:47;1.43;;;1.10;;
2408;SDS011;8463;48.094;7.970;2024-01-06T05:08:12;3.53;;;1.63;;
2408;SDS011;8463;48.094;7.970;2024-01-06T05:10:38;1.37;;;1.27;;
2408;SDS011;8463;48.094;7.970;2024-01-06T05:13:04;2.33;;;1.77;;
2408;SDS011;8463;48.094;7.970;2024-01-06T05:15:29;2.20;;;1.17;;
2408;SDS011;8463;48.094;7.970;2024-01-06T05:17:55;1.40;;;1.30;;
2408;SDS011;8463;48.094;7.970;2024-01-06T05:20:20;1.57;;;1.10;;
2408;SDS011;8463;48.094;7.970;2024-01-06T05:22:46;1.50;;;1.40;;
2408;SDS011;8463;48.094;7.970;2024-01-06T05:25:11;2.60;;;1.80;;
2408;SDS011;8463;48.094;7.970;2024-01-06T05:27:37;3.00;;;1.50;;
2408;SDS011;8463;48.094;7.970;2024-01-06T05:30:03;4.47;;;1.47;;
2408;SDS011;8463;48.094;7.970;2024-01-06T05:32:29;2.70;;;1.47;;
2408;SDS011;8463;48.094;7.970;2024-01-06T05:34:54;1.43;;;1.33;;
2408;SDS011;8463;48.094;7.970;2024-01-06T05:37:20;2.80;;;1.43;;
2408;SDS011;8463;48.094;7.970;2024-01-06T05:39:46;2.30;;;2.03;;
2408;SDS011;8463;48.094;7.970;2024-01-06T05:42:12;3.30;;;2.13;;
2408;SDS011;8463;48.094;7.970;2024-01-06T05:44:39;1.97;;;1.50;;
2408;SDS011;8463;48.094;7.970;2024-01-06T05:47:05;5.73;;;2.40;;
2408;SDS011;8463;48.094;7.970;2024-01-06T05:49:31;2.40;;;1.60;;
2408;SDS011;8463;48.094;7.970;2024-01-06T05:51:57;1.80;;;1.70;;
2408;SDS011;8463;48.094;7.970;2024-01-06T05:54:23;3.03;;;1.90;;
2408;SDS011;8463;48.094;7.970;2024-01-06T05:56:48;1.60;;;1.23;;
2408;SDS011;8463;48.094;7.970;2024-01-06T05:59:14;2.37;;;1.70;;
2408;SDS011;8463;48.094;7.970;2024-01-06T06:01:39;1.77;;;1.30;;
2408;SDS011;8463;48.094;7.970;2024-01-06T06:04:05;2.80;;;1.23;;
2408;SDS011;8463;48.094;7.970;2024-01-06T06:06:31;1.93;;;1.80;;
2408;SDS011;8463;48.094;7.970;2024-01-06T06:08:57;2.83;;;1.80;;
2408;SDS011;8463;48.094;7.970;2024-01-06T06:11:23;2.07;;;1.43;;
2408;SDS011;8463;48.094;7.970;2024-01-06T06:13:49;2.47;;;1.73;;
2408;SDS011;8463;48.094;7.970;2024-01-06T06:16:14;2.00;;;1.50;;
2408;SDS011;8463;48.094;7.970;2024-01-06T06:18:40;3.43;;;1.50;;
2408;SDS011;8463;48.094;7.970;2024-01-06T06:21:06;1.73;;;1.10;;
2408;SDS011;8463;48.094;7.970;2024-01-06T06:23:35;1.63;;;1.43;;
2408;SDS011;8463;48.094;7.970;2024-01-06T06:26:07;2.73;;;1.30;;
2408;SDS011;8463;48.094;7.970;2024-01-06T06:28:34;2.27;;;1.43;;
2408;SDS011;8463;48.094;7.970;2024-01-06T06:31:00;3.70;;;2.30;;
2408;SDS011;8463;48.094;7.970;2024-01-06T06:33:29;3.50;;;1.70;;
2408;SDS011;8463;48.094;7.970;2024-01-06T06:35:54;2.93;;;1.60;;
2408;SDS011;8463;48.094;7.970;2024-01-06T06:38:20;4.60;;;1.50;;
2408;SDS011;8463;48.094;7.970;2024-01-06T06:40:46;2.77;;;2.07;;
2408;SDS011;8463;48.094;7.970;2024-01-06T06:43:12;4.07;;;2.03;;
2408;SDS011;8463;48.094;7.970;2024-01-06T06:45:38;3.10;;;2.60;;
2408;SDS011;8463;48.094;7.970;2024-01-06T06:48:04;2.83;;;2.50;;
2408;SDS011;8463;48.094;7.970;2024-01-06T06:50:30;2.40;;;1.87;;
2408;SDS011;8463;48.094;7.970;2024-01-06T06:52:56;3.37;;;2.27;;
2408;SDS011;8463;48.094;7.970;2024-01-06T06:55:21;3.63;;;1.73;;
2408;SDS011;8463;48.094;7.970;2024-01-06T06:57:47;2.37;;;1.90;;
2408;SDS011;8463;48.094;7.970;2024-01-06T07:00:12;6.70;;;4.10;;
2408;SDS011;8463;48.094;7.970;2024-01-06T07:02:40;2.40;;;2.20;;
2408;SDS011;8463;48.094;7.970;2024-01-06T07:05:05;2.17;;;1.97;;
2408;SDS011;8463;48.094;7.970;2024-01-06T07:07:32;2.40;;;1.97;;
2408;SDS011;8463;48.094;7.970;2024-01-06T07:09:58;4.63;;;2.70;;
2408;SDS011;8463;48.094;7.970;2024-01-06T07:12:25;3.20;;;2.80;;
2408;SDS011;8463;48.094;7.970;2024-01-06T07:14:52;3.53;;;2.33;;
2408;SDS011;8463;48.094;7.970;2024-01-06T07:17:18;4.20;;;2.97;;
2408;SDS011;8463;48.094;7.970;2024-01-06T07:19:44;3.27;;;1.80;;
2408;SDS011;8463;48.094;7.970;2024-01-06T07:22:10;2.20;;;2.00;;
2408;SDS011;8463;48.094;7.970;2024-01-06T07:24:35;2.67;;;2.07;;
2408;SDS011;8463;48.094;7.970;2024-01-06T07:27:01;4.90;;;1.97;;
2408;SDS011;8463;48.094;7.970;2024-01-06T07:29:28;3.40;;;2.20;;
2408;SDS011;8463;48.094;7.970;2024-01-06T07:31:54;9.23;;;3.03;;
2408;SDS011;8463;48.094;7.970;2024-01-06T07:34:19;8.30;;;3.07;;
2408;SDS011;8463;48.094;7.970;2024-01-06T07:36:45;3.40;;;2.57;;
2408;SDS011;8463;48.094;7.970;2024-01-06T07:39:11;7.23;;;4.10;;
2408;SDS011;8463;48.094;7.970;2024-01-06T07:41:36;5.80;;;3.60;;
2408;SDS011;8463;48.094;7.970;2024-01-06T07:44:02;4.03;;;2.43;;
2408;SDS011;8463;48.094;7.970;2024-01-06T07:46:28;4.60;;;2.73;;
2408;SDS011;8463;48.094;7.970;2024-01-06T07:48:54;3.63;;;2.60;;
2408;SDS011;8463;48.094;7.970;2024-01-06T07:51:19;3.60;;;2.50;;
2408;SDS011;8463;48.094;7.970;2024-01-06T07:53:45;5.43;;;3.07;;
2408;SDS011;8463;48.094;7.970;2024-01-06T07:56:11;3.30;;;2.40;;
2408;SDS011;8463;48.094;7.970;2024-01-06T07:58:36;3.13;;;2.67;;
2408;SDS011;8463;48.094;7.970;2024-01-06T08:01:02;3.33;;;3.03;;
2408;SDS011;8463;48.094;7.970;2024-01-06T08:03:27;5.90;;;4.53;;
2408;SDS011;8463;48.094;7.970;2024-01-06T08:05:53;4.57;;;2.80;;
2408;SDS011;8463;48.094;7.970;2024-01-06T08:08:19;4.07;;;3.17;;
2408;SDS011;8463;48.094;7.970;2024-01-06T08:10:46;4.47;;;2.83;;
2408;SDS011;8463;48.094;7.970;2024-01-06T08:13:11;4.40;;;3.30;;
2408;SDS011;8463;48.094;7.970;2024-01-06T08:15:38;3.13;;;2.70;;
2408;SDS011;8463;48.094;7.970;2024-01-06T08:18:03;4.30;;;3.20;;
2408;SDS011;8463;48.094;7.970;2024-01-06T08:20:29;5.07;;;3.10;;
2408;SDS011;8463;48.094;7.970;2024-01-06T08:22:55;6.33;;;3.33;;
2408;SDS011;8463;48.094;7.970;2024-01-06T08:25:20;5.00;;;2.60;;
2408;SDS011;8463;48.094;7.970;2024-01-06T08:27:46;4.80;;;3.20;;
2408;SDS011;8463;48.094;7.970;2024-01-06T08:30:12;3.57;;;2.67;;
2408;SDS011;8463;48.094;7.970;2024-01-06T08:32:38;7.77;;;3.80;;
2408;SDS011;8463;48.094;7.970;2024-01-06T08:35:04;7.30;;;3.90;;
2408;SDS011;8463;48.094;7.970;2024-01-06T08:37:30;3.33;;;3.03;;
2408;SDS011;8463;48.094;7.970;2024-01-06T08:39:55;3.57;;;2.87;;
2408;SDS011;8463;48.094;7.970;2024-01-06T08:42:21;2.80;;;1.80;;
2408;SDS011;8463;48.094;7.970;2024-01-06T08:44:47;3.80;;;2.50;;
2408;SDS011;8463;48.094;7.970;2024-01-06T08:47:15;3.30;;;3.00;;
2408;SDS011;8463;48.094;7.970;2024-01-06T08:49:40;2.70;;;2.23;;
2408;SDS011;8463;48.094;7.970;2024-01-06T08:52:06;4.97;;;2.63;;
2408;SDS011;8463;48.094;7.970;2024-01-06T08:54:32;2.67;;;2.47;;
2408;SDS011;8463;48.094;7.970;2024-01-06T08:56:57;7.20;;;2.30;;
2408;SDS011;8463;48.094;7.970;2024-01-06T08:59:23;3.37;;;2.00;;
2408;SDS011;8463;48.094;7.970;2024-01-06T09:01:49;3.60;;;2.57;;
2408;SDS011;8463;48.094;7.970;2024-01-06T09:04:14;3.57;;;2.23;;
2408;SDS011;8463;48.094;7.970;2024-01-06T09:06:40;5.50;;;2.37;;
2408;SDS011;8463;48.094;7.970;2024-01-06T09:09:07;4.27;;;2.40;;
2408;SDS011;8463;48.094;7.970;2024-01-06T09:11:33;4.30;;;3.43;;
2408;SDS011;8463;48.094;7.970;2024-01-06T09:13:59;4.40;;;3.30;;
2408;SDS011;8463;48.094;7.970;2024-01-06T09:16:25;4.17;;;2.73;;
2408;SDS011;8463;48.094;7.970;2024-01-06T09:18:51;3.23;;;2.60;;
2408;SDS011;8463;48.094;7.970;2024-01-06T09:21:17;2.83;;;2.53;;
2408;SDS011;8463;48.094;7.970;2024-01-06T09:23:43;2.03;;;1.83;;
2408;SDS011;8463;48.094;7.970;2024-01-06T09:26:08;3.00;;;2.07;;
2408;SDS011;8463;48.094;7.970;2024-01-06T09:28:37;2.20;;;1.40;;
2408;SDS011;8463;48.094;7.970;2024-01-06T09:31:02;3.23;;;1.80;;
2408;SDS011;8463;48.094;7.970;2024-01-06T09:33:29;3.03;;;2.23;;
2408;SDS011;8463;48.094;7.970;2024-01-06T09:35:55;3.70;;;2.50;;
2408;SDS011;8463;48.094;7.970;2024-01-06T09:38:21;3.57;;;2.77;;
2408;SDS011;8463;48.094;7.970;2024-01-06T09:40:46;3.50;;;3.20;;
2408;SDS011;8463;48.094;7.970;2024-01-06T09:43:14;4.50;;;4.07;;
2408;SDS011;8463;48.094;7.970;2024-01-06T09:45:40;6.27;;;5.20;;
2408;SDS011;8463;48.094;7.970;2024-01-06T09:48:12;4.33;;;3.80;;
2408;SDS011;8463;48.094;7.970;2024-01-06T09:50:42;12.57;;;3.93;;
2408;SDS011;8463;48.094;7.970;2024-01-06T09:53:12;4.67;;;4.13;;
2408;SDS011;8463;48.094;7.970;2024-01-06T09:55:39;3.23;;;2.93;;
2408;SDS011;8463;48.094;7.970;2024-01-06T09:58:05;4.83;;;1.90;;
2408;SDS011;8463;48.094;7.970;2024-01-06T10:00:31;1.90;;;1.80;;
2408;SDS011;8463;48.094;7.970;2024-01-06T10:02:57;6.37;;;4.80;;
2408;SDS011;8463;48.094;7.970;2024-01-06T10:05:23;2.83;;;1.80;;
2408;SDS011;8463;48.094;7.970;2024-01-06T10:07:48;8.10;;;2.17;;
2408;SDS011;8463;48.094;7.970;2024-01-06T10:10:15;3.27;;;1.80;;
2408;SDS011;8463;48.094;7.970;2024-01-06T10:12:41;1.93;;;1.73;;
2408;SDS011;8463;48.094;7.970;2024-01-06T10:15:08;5.50;;;1.70;;
2408;SDS011;8463;48.094;7.970;2024-01-06T10:17:43;1.80;;;1.27;;
2408;SDS011;8463;48.094;7.970;2024-01-06T10:20:10;5.57;;;2.60;;
2408;SDS011;8463;48.094;7.970;2024-01-06T10:22:37;3.00;;;2.20;;
2408;SDS011;8463;48.094;7.970;2024-01-06T10:25:06;2.87;;;2.57;;
2408;SDS011;8463;48.094;7.970;2024-01-06T10:27:36;3.47;;;1.50;;
2408;SDS011;8463;48.094;7.970;2024-01-06T10:30:03;2.70;;;2.40;;
2408;SDS011;8463;48.094;7.970;2024-01-06T10:32:31;2.53;;;1.83;;
2408;SDS011;8463;48.094;7.970;2024-01-06T10:34:57;1.70;;;1.33;;
2408;SDS011;8463;48.094;7.970;2024-01-06T10:37:25;3.20;;;1.97;;
2408;SDS011;8463;48.094;7.970;2024-01-06T10:42:38;2.70;;;2.00;;
2408;SDS011;8463;48.094;7.970;2024-01-06T10:45:08;2.70;;;1.30;;
2408;SDS011;8463;48.094;7.970;2024-01-06T10:47:35;1.93;;;1.43;;
2408;SDS011;8463;48.094;7.970;2024-01-06T10:50:02;1.50;;;1.27;;
2408;SDS011;8463;48.094;7.970;2024-01-06T10:52:28;2.20;;;1.33;;
2408;SDS011;8463;48.094;7.970;2024-01-06T10:54:55;1.50;;;1.33;;
2408;SDS011;8463;48.094;7.970;2024-01-06T10:57:21;1.60;;;1.50;;
2408;SDS011;8463;48.094;7.970;2024-01-06T10:59:52;1.90;;;1.50;;
2408;SDS011;8463;48.094;7.970;2024-01-06T11:02:19;4.33;;;1.60;;
2408;SDS011;8463;48.094;7.970;2024-01-06T11:04:46;1.90;;;1.70;;
2408;SDS011;8463;48.094;7.970;2024-01-06T11:07:16;1.30;;;1.00;;
2408;SDS011;8463;48.094;7.970;2024-01-06T11:09:56;1.47;;;1.10;;
2408;SDS011;8463;48.094;7.970;2024-01-06T11:12:30;3.60;;;1.90;;
2408;SDS011;8463;48.094;7.970;2024-01-06T11:14:56;3.60;;;1.30;;
2408;SDS011;8463;48.094;7.970;2024-01-06T11:20:22;2.90;;;1.70;;
2408;SDS011;8463;48.094;7.970;2024-01-06T11:22:49;3.73;;;1.83;;
2408;SDS011;8463;48.094;7.970;2024-01-06T11:25:16;4.13;;;2.53;;
2408;SDS011;8463;48.094;7.970;2024-01-06T11:27:47;1.77;;;1.57;;
2408;SDS011;8463;48.094;7.970;2024-01-06T11:30:21;3.47;;;2.40;;
2408;SDS011;8463;48.094;7.970;2024-01-06T11:32:49;4.00;;;2.57;;
2408;SDS011;8463;48.094;7.970;2024-01-06T11:35:20;3.03;;;1.40;;
2408;SDS011;8463;48.094;7.970;2024-01-06T11:42:46;1.50;;;1.30;;
2408;SDS011;8463;48.094;7.970;2024-01-06T11:45:13;2.20;;;1.80;;
2408;SDS011;8463;48.094;7.970;2024-01-06T11:47:40;2.57;;;1.40;;
2408;SDS011;8463;48.094;7.970;2024-01-06T11:50:11;2.47;;;1.90;;
2408;SDS011;8463;48.094;7.970;2024-01-06T11:52:38;2.40;;;1.70;;
2408;SDS011;8463;48.094;7.970;2024-01-06T11:55:04;1.83;;;1.70;;
2408;SDS011;8463;48.094;7.970;2024-01-06T11:57:33;2.37;;;1.73;;
2408;SDS011;8463;48.094;7.970;2024-01-06T11:59:59;1.60;;;1.47;;
2408;SDS011;8463;48.094;7.970;2024-01-06T12:02:25;2.27;;;2.07;;
2408;SDS011;8463;48.094;7.970;2024-01-06T12:04:51;4.93;;;3.10;;
2408;SDS011;8463;48.094;7.970;2024-01-06T12:07:18;5.03;;;2.33;;
2408;SDS011;8463;48.094;7.970;2024-01-06T12:09:47;10.87;;;6.10;;
2408;SDS011;8463;48.094;7.970;2024-01-06T12:12:16;8.93;;;5.07;;
2408;SDS011;8463;48.094;7.970;2024-01-06T12:14:43;7.20;;;3.70;;
2408;SDS011;8463;48.094;7.970;2024-01-06T12:17:10;2.37;;;2.10;;
2408;SDS011;8463;48.094;7.970;2024-01-06T12:19:38;4.10;;;2.57;;
2408;SDS011;8463;48.094;7.970;2024-01-06T12:22:04;3.63;;;3.10;;
2408;SDS011;8463;48.094;7.970;2024-01-06T12:24:30;2.47;;;2.27;;
2408;SDS011;8463;48.094;7.970;2024-01-06T12:26:56;3.47;;;2.23;;
2408;SDS011;8463;48.094;7.970;2024-01-06T12:29:23;3.37;;;2.60;;
2408;SDS011;8463;48.094;7.970;2024-01-06T12:31:52;5.73;;;2.57;;
2408;SDS011;8463;48.094;7.970;2024-01-06T12:34:18;2.57;;;2.37;;
2408;SDS011;8463;48.094;7.970;2024-01-06T12:36:43;3.17;;;2.00;;
2408;SDS011;8463;48.094;7.970;2024-01-06T12:39:12;2.00;;;1.80;;
2408;SDS011;8463;48.094;7.970;2024-01-06T12:41:42;2.67;;;2.00;;
2408;SDS011;8463;48.094;7.970;2024-01-06T12:44:08;3.23;;;2.73;;
2408;SDS011;8463;48.094;7.970;2024-01-06T12:46:34;2.47;;;2.03;;
2408;SDS011;8463;48.094;7.970;2024-01-06T12:49:02;5.57;;;4.27;;
2408;SDS011;8463;48.094;7.970;2024-01-06T12:51:28;3.37;;;2.83;;
2408;SDS011;8463;48.094;7.970;2024-01-06T12:53:54;3.80;;;3.37;;
2408;SDS011;8463;48.094;7.970;2024-01-06T12:56:20;6.40;;;4.60;;
2408;SDS011;8463;48.094;7.970;2024-01-06T12:58:45;2.70;;;2.50;;
2408;SDS011;8463;48.094;7.970;2024-01-06T13:01:11;3.70;;;3.17;;
2408;SDS011;8463;48.094;7.970;2024-01-06T13:03:37;6.10;;;2.20;;
2408;SDS011;8463;48.094;7.970;2024-01-06T13:06:03;2.13;;;1.90;;
2408;SDS011;8463;48.094;7.970;2024-01-06T13:08:28;3.70;;;3.40;;
2408;SDS011;8463;48.094;7.970;2024-01-06T13:10:55;3.00;;;2.50;;
2408;SDS011;8463;48.094;7.970;2024-01-06T13:13:21;5.60;;;5.10;;
2408;SDS011;8463;48.094;7.970;2024-01-06T13:15:47;4.00;;;3.60;;
2408;SDS011;8463;48.094;7.970;2024-01-06T13:18:12;4.27;;;2.20;;
2408;SDS011;8463;48.094;7.970;2024-01-06T13:20:39;2.63;;;1.90;;
2408;SDS011;8463;48.094;7.970;2024-01-06T13:23:06;4.90;;;3.70;;
2408;SDS011;8463;48.094;7.970;2024-01-06T13:25:33;3.10;;;2.80;;
2408;SDS011;8463;48.094;7.970;2024-01-06T13:27:59;3.83;;;3.47;;
2408;SDS011;8463;48.094;7.970;2024-01-06T13:30:25;5.10;;;3.20;;
2408;SDS011;8463;48.094;7.970;2024-01-06T13:32:54;4.30;;;3.50;;
2408;SDS011;8463;48.094;7.970;2024-01-06T13:35:20;4.23;;;3.20;;
2408;SDS011;8463;48.094;7.970;2024-01-06T13:37:47;4.30;;;3.57;;
2408;SDS011;8463;48.094;7.970;2024-01-06T13:40:16;3.60;;;3.10;;
2408;SDS011;8463;48.094;7.970;2024-01-06T13:42:45;3.50;;;2.73;;
2408;SDS011;8463;48.094;7.970;2024-01-06T13:45:11;4.50;;;3.40;;
2408;SDS011;8463;48.094;7.970;2024-01-06T13:47:38;6.60;;;4.47;;
2408;SDS011;8463;48.094;7.970;2024-01-06T13:50:07;4.97;;;4.43;;
2408;SDS011;8463;48.094;7.970;2024-01-06T13:52:33;6.13;;;2.93;;
2408;SDS011;8463;48.094;7.970;2024-01-06T13:55:02;3.40;;;3.10;;
2408;SDS011;8463;48.094;7.970;2024-01-06T13:57:37;2.80;;;2.23;;
2408;SDS011;8463;48.094;7.970;2024-01-06T14:00:20;3.20;;;2.70;;
2408;SDS011;8463;48.094;7.970;2024-01-06T14:02:46;2.90;;;2.40;;
2408;SDS011;8463;48.094;7.970;2024-01-06T14:05:14;2.90;;;2.33;;
2408;SDS011;8463;48.094;7.970;2024-01-06T14:07:40;4.60;;;2.60;;
2408;SDS011;8463;48.094;7.970;2024-01-06T14:10:11;2.70;;;2.50;;
2408;SDS011;8463;48.094;7.970;2024-01-06T14:12:37;2.60;;;2.40;;
2408;SDS011;8463;48.094;7.970;2024-01-06T14:15:03;3.80;;;2.57;;
2408;SDS011;8463;48.094;7.970;2024-01-06T14:17:31;2.63;;;2.43;;
2408;SDS011;8463;48.094;7.970;2024-01-06T14:19:57;2.70;;;2.50;;
2408;SDS011;8463;48.094;7.970;2024-01-06T14:22:22;2.60;;;2.40;;
2408;SDS011;8463;48.094;7.970;2024-01-06T14:24:48;2.90;;;2.00;;
2408;SDS011;8463;48.094;7.970;2024-01-06T14:27:14;6.23;;;2.60;;
2408;SDS011;8463;48.094;7.970;2024-01-06T14:29:40;1.80;;;1.63;;
2408;SDS011;8463;48.094;7.970;2024-01-06T14:32:06;3.30;;;2.57;;
2408;SDS011;8463;48.094;7.970;2024-01-06T14:34:32;3.43;;;3.13;;
2408;SDS011;8463;48.094;7.970;2024-01-06T14:36:58;3.30;;;2.57;;
2408;SDS011;8463;48.094;7.970;2024-01-06T14:39:24;3.20;;;2.80;;
2408;SDS011;8463;48.094;7.970;2024-01-06T14:41:50;5.73;;;4.00;;
2408;SDS011;8463;48.094;7.970;2024-01-06T14:44:17;7.70;;;4.80;;
2408;SDS011;8463;48.094;7.970;2024-01-06T14:46:45;3.80;;;2.70;;
2408;SDS011;8463;48.094;7.970;2024-01-06T14:49:15;3.40;;;3.10;;
2408;SDS011;8463;48.094;7.970;2024-01-06T14:51:44;3.63;;;2.53;;
2408;SDS011;8463;48.094;7.970;2024-01-06T14:54:10;2.40;;;1.87;;
2408;SDS011;8463;48.094;7.970;2024-01-06T14:56:39;2.60;;;1.70;;
2408;SDS011;8463;48.094;7.970;2024-01-06T14:59:06;2.40;;;1.60;;
2408;SDS011;8463;48.094;7.970;2024-01-06T15:01:32;2.07;;;1.80;;
2408;SDS011;8463;48.094;7.970;2024-01-06T15:03:57;2.00;;;1.90;;
2408;SDS011;8463;48.094;7.970;2024-01-06T15:06:23;5.27;;;1.97;;
2408;SDS011;8463;48.094;7.970;2024-01-06T15:08:49;2.40;;;1.87;;
2408;SDS011;8463;48.094;7.970;2024-01-06T15:11:15;1.67;;;1.50;;
2408;SDS011;8463;48.094;7.970;2024-01-06T15:13:41;2.00;;;1.80;;
2408;SDS011;8463;48.094;7.970;2024-01-06T15:16:07;2.20;;;1.70;;
2408;SDS011;8463;48.094;7.970;2024-01-06T15:18:34;2.33;;;2.00;;
2408;SDS011;8463;48.094;7.970;2024-01-06T15:21:01;1.83;;;1.57;;